Ellenville, New York
Current Conditions -  °F | °C
As of 9:31 PM on Tuesday 21 Oct 2014 (Local Time) from KMGJ Reporting Station
Light Rain Light Rain  
Wind Chill: 52°   Ceiling: 800
Heat Index: 52°   Visibility: 9mi
Dew Point: 50°   Wind: 10mph
Humidity: 93%   Direction: 50°NE
Pressure: 29.94"   Gusts: NA
Location:  41.72°N, 74.4°W
Report Text: KMGJ 220131Z AUTO 05009KT 9SM -RA BKN008 OVC028 11/10 A2994 RMK AO2 RAB14 P0000 T01110100 TSNO
Loading
Personal Weather Stations






























Interactive Weather Map
Tropical Storm Tracking
New forecast layout! Learn more

10-Day Weather Forecast

Advertisements
Track Severe Weather on mobile